Time;durP1;ratioP1;P1;durP2;ratioP2;P2;SDS_P1;SDS_P2;PMS_P1;PMS_P2;Temp;Humidity;BMP_temperature;BMP_pressure;BME280_temperature;BME280_humidity;BME280_pressure;Samples;Min_cycle;Max_cycle;Signal;HPM_P1;HPM_P2
2022/11/05 00:10:37;;;;;;;3.20;2.30;;;;;;;8.89;100.00;101435.06;5244364;28;20088;-72
2022/11/05 00:19:05;;;;;;;4.03;2.60;;;;;;;8.69;100.00;101446.88;5250516;28;20036;-72
2022/11/05 00:27:17;;;;;;;5.28;2.88;;;;;;;8.56;100.00;101439.03;5237503;28;20049;-72
2022/11/05 00:29:49;;;;;;;5.78;2.33;;;;;;;8.58;100.00;101447.59;5241436;28;20033;-72
2022/11/05 00:32:20;;;;;;;4.38;2.92;;;;;;;8.51;100.00;101446.31;5231913;28;20481;-72
2022/11/05 00:34:51;;;;;;;6.13;2.83;;;;;;;8.44;100.00;101453.72;5235067;28;20611;-72
2022/11/05 00:37:23;;;;;;;3.35;2.28;;;;;;;8.43;100.00;101459.06;5241637;28;20043;-71
2022/11/05 00:39:54;;;;;;;5.00;2.70;;;;;;;8.36;100.00;101463.81;5248007;28;20048;-72
2022/11/05 00:45:15;;;;;;;5.40;2.50;;;;;;;8.26;100.00;101462.75;5240271;28;20515;-72
2022/11/05 00:50:36;;;;;;;3.97;2.80;;;;;;;8.17;100.00;101477.22;5237221;28;20042;-72
2022/11/05 00:53:08;;;;;;;3.75;2.38;;;;;;;8.14;100.00;101472.19;5239084;28;20049;-72
2022/11/05 00:55:41;;;;;;;5.57;2.70;;;;;;;8.18;100.00;101483.25;5241160;28;20104;-72
2022/11/05 00:58:21;;;;;;;3.75;2.70;;;;;;;8.25;100.00;101481.94;5232390;28;20023;-72
2022/11/05 01:00:54;;;;;;;4.88;2.90;;;;;;;8.07;100.00;101483.97;5242263;28;20072;-72
2022/11/05 01:03:30;;;;;;;4.15;2.70;;;;;;;8.07;100.00;101486.59;5240155;28;20045;-72
2022/11/05 01:06:15;;;;;;;4.25;2.70;;;;;;;8.24;100.00;101485.50;5238736;28;20029;-72
2022/11/05 01:08:46;;;;;;;3.85;2.47;;;;;;;8.03;100.00;101482.47;5247097;28;20033;-72
2022/11/05 01:11:34;;;;;;;3.63;2.60;;;;;;;7.90;100.00;101498.06;5246420;28;20086;-72
2022/11/05 01:14:09;;;;;;;5.88;2.97;;;;;;;7.90;100.00;101498.06;5246966;28;20021;-72
2022/11/05 01:16:41;;;;;;;4.22;2.75;;;;;;;7.87;100.00;101494.81;5245383;28;20124;-72
2022/11/05 01:19:12;;;;;;;4.72;2.80;;;;;;;7.82;100.00;101508.16;5246605;28;20021;-72
2022/11/05 01:21:43;;;;;;;5.82;2.70;;;;;;;7.79;100.00;101506.56;5247220;28;20017;-72
2022/11/05 01:24:15;;;;;;;5.85;2.53;;;;;;;7.76;100.00;101508.53;5250985;28;20026;-72
2022/11/05 01:26:46;;;;;;;4.25;2.72;;;;;;;7.80;100.00;101523.06;5249509;28;20025;-72
2022/11/05 01:29:17;;;;;;;7.30;2.97;;;;;;;7.77;100.00;101520.66;5250773;28;20041;-72
2022/11/05 01:31:49;;;;;;;6.13;2.67;;;;;;;7.77;100.00;101523.28;5255760;28;20124;-72
2022/11/05 01:34:20;;;;;;;6.45;3.45;;;;;;;7.83;100.00;101512.44;5246495;28;20026;-72
2022/11/05 01:36:51;;;;;;;7.18;3.00;;;;;;;7.87;100.00;101520.91;5246611;28;20100;-72
2022/11/05 01:39:22;;;;;;;5.60;2.83;;;;;;;7.87;100.00;101523.53;5252014;28;20024;-72
2022/11/05 01:41:54;;;;;;;5.53;2.88;;;;;;;7.86;100.00;101527.91;5245432;28;20037;-72
2022/11/05 01:44:58;;;;;;;4.35;2.65;;;;;;;8.09;100.00;101515.19;5249297;28;20033;-72
2022/11/05 01:47:46;;;;;;;7.03;3.00;;;;;;;8.07;100.00;101514.44;5240253;28;20025;-72
2022/11/05 01:50:35;;;;;;;5.65;2.65;;;;;;;8.05;100.00;101527.59;5242877;28;20398;-72
2022/11/05 01:53:24;;;;;;;8.38;3.40;;;;;;;8.02;100.00;101522.56;5241572;28;20045;-72
2022/11/05 01:56:03;;;;;;;7.88;3.00;;;;;;;7.86;100.00;101520.06;5243439;28;20146;-72
2022/11/05 01:58:43;;;;;;;6.60;2.95;;;;;;;7.81;100.00;101506.50;5250370;28;20502;-72
2022/11/05 02:01:15;;;;;;;3.97;2.65;;;;;;;7.71;100.00;101515.81;5249302;28;20024;-72
2022/11/05 02:03:49;;;;;;;4.75;2.67;;;;;;;7.75;100.00;101514.69;5245807;28;20040;-72
2022/11/05 02:06:20;;;;;;;3.33;2.60;;;;;;;7.73;100.00;101513.97;5244525;28;20036;-72
2022/11/05 02:09:21;;;;;;;7.57;2.85;;;;;;;8.05;100.00;101511.94;5245119;28;20021;-72
2022/11/05 02:11:52;;;;;;;6.78;3.20;;;;;;;7.71;100.00;101510.59;5243576;28;20048;-72
2022/11/05 02:14:23;;;;;;;7.75;3.72;;;;;;;7.74;100.00;101499.97;5239628;28;20021;-72
2022/11/05 02:17:00;;;;;;;5.60;3.45;;;;;;;7.76;100.00;101511.13;5243989;28;20564;-72
2022/11/05 02:19:38;;;;;;;7.35;3.63;;;;;;;7.86;100.00;101507.03;5246405;28;20104;-72
2022/11/05 02:22:47;;;;;;;6.50;3.97;;;;;;;8.04;100.00;101511.09;5245226;28;20390;-72
2022/11/05 02:25:33;;;;;;;5.57;3.47;;;;;;;7.94;100.00;101504.78;5248483;28;20043;-72
2022/11/05 02:28:38;;;;;;;6.88;3.72;;;;;;;7.92;100.00;101508.44;5240977;28;20021;-71
2022/11/05 02:31:27;;;;;;;7.95;3.72;;;;;;;7.87;100.00;101516.53;5245282;28;20018;-72
2022/11/05 02:34:17;;;;;;;7.43;3.60;;;;;;;7.66;100.00;101507.44;5244504;28;20029;-72
2022/11/05 02:36:59;;;;;;;10.10;4.10;;;;;;;7.72;100.00;101504.44;5242962;28;20109;-72
2022/11/05 02:39:54;;;;;;;9.77;3.80;;;;;;;7.86;100.00;101504.44;5242423;28;20028;-72
2022/11/05 02:42:50;;;;;;;7.18;4.28;;;;;;;7.86;100.00;101508.81;5243896;28;20029;-72
2022/11/05 02:45:54;;;;;;;6.85;4.22;;;;;;;7.85;100.00;101504.53;5246665;28;20075;-72
2022/11/05 02:48:42;;;;;;;7.38;3.95;;;;;;;7.75;100.00;101506.88;5240028;28;20033;-72
2022/11/05 02:51:32;;;;;;;8.23;4.32;;;;;;;7.70;100.00;101494.13;5242025;28;20496;-72
2022/11/05 02:54:15;;;;;;;6.15;3.88;;;;;;;7.67;100.00;101502.13;5264033;23;20485;-75
2022/11/05 02:56:48;;;;;;;;;;;;;;;8.17;100.00;101500.69;5240216;28;20132;-75
2022/11/05 02:59:20;;;;;;;6.95;4.43;;;;;;;7.54;100.00;101501.22;5247290;28;19917;-75
2022/11/05 03:01:52;;;;;;;8.70;4.53;;;;;;;7.52;100.00;101498.69;5246150;28;20527;-75
2022/11/05 03:04:24;;;;;;;6.55;5.03;;;;;;;7.44;100.00;101498.34;5260682;28;20094;-75
2022/11/05 03:07:27;;;;;;;9.40;4.90;;;;;;;7.57;100.00;101507.06;5266076;28;20021;-77
2022/11/05 03:10:17;;;;;;;9.18;5.25;;;;;;;7.61;100.00;101499.88;5274226;28;20521;-78
2022/11/05 03:13:11;;;;;;;8.35;5.00;;;;;;;7.72;100.00;101494.00;5271276;28;20050;-78
2022/11/05 03:15:55;;;;;;;11.13;5.50;;;;;;;7.55;100.00;101492.47;5249783;28;20036;-78
2022/11/05 03:18:47;;;;;;;8.02;5.20;;;;;;;7.69;100.00;101499.41;5277817;28;20817;-78
2022/11/05 03:21:40;;;;;;;7.72;5.40;;;;;;;7.71;100.00;101500.16;5274029;28;20025;-78
2022/11/05 03:24:21;;;;;;;9.07;5.50;;;;;;;7.60;100.00;101505.22;5257033;28;20059;-77
2022/11/05 03:27:01;;;;;;;8.93;5.55;;;;;;;7.53;100.00;101495.16;5263029;28;20032;-78
2022/11/05 03:29:38;;;;;;;11.98;6.47;;;;;;;7.34;100.00;101505.03;5251688;28;20033;-78
2022/11/05 03:32:11;;;;;;;8.90;6.03;;;;;;;7.32;100.00;101505.13;5262839;28;20024;-78
2022/11/05 03:34:46;;;;;;;11.00;5.95;;;;;;;7.37;100.00;101520.50;5273423;28;20108;-78
2022/11/05 03:37:21;;;;;;;9.18;6.13;;;;;;;7.26;100.00;101517.69;5261926;28;20480;-78
2022/11/05 03:40:00;;;;;;;11.13;6.55;;;;;;;7.34;100.00;101512.00;5272285;28;20412;-78
2022/11/05 03:42:36;;;;;;;8.73;5.78;;;;;;;7.26;100.00;101517.69;5240285;28;20028;-78
2022/11/05 03:49:04;;;;;;;8.90;6.40;;;;;;;7.26;100.00;101513.31;5269206;28;20037;-78
2022/11/05 03:51:52;;;;;;;9.60;6.50;;;;;;;7.40;100.00;101511.66;5249241;28;20068;-78
2022/11/05 03:54:24;;;;;;;10.68;6.40;;;;;;;7.12;100.00;101515.91;5261582;28;20036;-78
2022/11/05 03:57:01;;;;;;;10.32;6.40;;;;;;;7.22;100.00;101513.59;5236123;28;20033;-78
2022/11/05 03:59:41;;;;;;;10.90;6.85;;;;;;;7.21;100.00;101519.75;5269290;28;20034;-78
2022/11/05 04:02:14;;;;;;;13.80;6.70;;;;;;;7.06;100.00;101506.69;5240517;28;20032;-78
2022/11/05 04:04:46;;;;;;;10.45;6.65;;;;;;;7.04;100.00;101512.91;5229979;28;20147;-78
2022/11/05 04:13:24;;;;;;;14.52;7.45;;;;;;;6.97;100.00;101515.06;5275119;28;20025;-78
2022/11/05 04:18:46;;;;;;;10.65;7.13;;;;;;;6.95;100.00;101519.50;5264464;28;20036;-78
2022/11/05 04:24:07;;;;;;;8.80;7.40;;;;;;;6.95;100.00;101536.91;5270741;28;20420;-78
2022/11/05 04:26:42;;;;;;;14.45;7.95;;;;;;;7.05;100.00;101531.06;5275968;28;20028;-78
2022/11/05 04:32:04;;;;;;;12.90;8.02;;;;;;;6.93;100.00;101537.00;5274236;28;20025;-78
2022/11/05 04:34:35;;;;;;;11.77;7.45;;;;;;;6.95;100.00;101524.72;5256174;28;20029;-78
2022/11/05 04:37:06;;;;;;;13.75;8.10;;;;;;;6.99;100.00;101526.22;5272260;28;20025;-78
2022/11/05 04:39:38;;;;;;;11.07;7.32;;;;;;;6.92;100.00;101531.88;5269789;28;20020;-78
2022/11/05 04:42:09;;;;;;;13.60;7.05;;;;;;;6.91;100.00;101530.22;5258390;28;20028;-78
2022/11/05 04:44:40;;;;;;;12.30;7.30;;;;;;;6.92;100.00;101540.53;5250497;28;20032;-78
2022/11/05 04:47:11;;;;;;;13.00;7.30;;;;;;;6.89;100.00;101538.09;5266218;28;20033;-78
2022/11/05 04:49:43;;;;;;;10.15;6.97;;;;;;;6.92;100.00;101547.50;5275575;28;20427;-78
2022/11/05 04:52:15;;;;;;;11.68;7.50;;;;;;;6.89;100.00;101537.25;5247998;28;20540;-77
2022/11/05 04:54:46;;;;;;;14.20;8.30;;;;;;;6.88;100.00;101548.63;5270292;28;20039;-77
2022/11/05 04:57:17;;;;;;;14.43;8.55;;;;;;;6.87;100.00;101542.56;5277509;28;20033;-77
2022/11/05 04:59:49;;;;;;;10.55;7.80;;;;;;;6.88;100.00;101546.84;5265156;28;20033;-77
2022/11/05 05:02:20;;;;;;;10.40;7.40;;;;;;;6.90;100.00;101558.03;5267386;28;20032;-77
2022/11/05 05:04:52;;;;;;;9.60;7.60;;;;;;;6.90;100.00;101552.81;5283611;28;20128;-77
2022/11/05 05:07:24;;;;;;;11.68;8.10;;;;;;;6.83;100.00;101548.88;5266027;28;20021;-77
2022/11/05 05:09:56;;;;;;;8.48;7.60;;;;;;;6.86;100.00;101556.53;5267529;28;20032;-78
2022/11/05 05:12:27;;;;;;;12.30;8.70;;;;;;;6.93;100.00;101560.47;5273128;28;20040;-78
2022/11/05 05:14:59;;;;;;;12.15;8.45;;;;;;;6.88;100.00;101546.84;5267190;28;20021;-78
2022/11/05 05:17:30;;;;;;;12.02;8.40;;;;;;;6.88;100.00;101551.22;5272684;28;20032;-78
2022/11/05 05:23:05;;;;;;;12.20;8.57;;;;;;;6.90;100.00;101562.41;5238289;28;20029;-78
2022/11/05 05:25:36;;;;;;;13.85;8.55;;;;;;;6.86;100.00;101561.75;5269592;28;20028;-78
2022/11/05 05:28:07;;;;;;;13.18;8.27;;;;;;;6.83;100.00;101556.69;5268651;28;20029;-78
2022/11/05 05:30:39;;;;;;;11.98;8.02;;;;;;;6.80;100.00;101562.06;5270193;28;20079;-78
2022/11/05 05:33:10;;;;;;;10.55;7.93;;;;;;;6.86;100.00;101574.75;5264048;28;20032;-77
2022/11/05 05:35:41;;;;;;;12.43;9.02;;;;;;;6.79;100.00;101563.84;5259512;28;20013;-78
2022/11/05 05:38:12;;;;;;;12.95;8.05;;;;;;;6.81;100.00;101569.78;5271597;28;20111;-78
2022/11/05 05:40:44;;;;;;;13.18;8.55;;;;;;;6.81;100.00;101576.78;5272140;28;20037;-78
2022/11/05 05:43:15;;;;;;;10.02;7.93;;;;;;;6.79;100.00;101571.66;5273445;28;20021;-77
2022/11/05 05:45:46;;;;;;;15.38;8.48;;;;;;;6.80;100.00;101583.75;5271526;28;20029;-78
2022/11/05 05:48:17;;;;;;;11.68;7.75;;;;;;;6.81;100.00;101579.38;5267527;28;20040;-78
2022/11/05 05:50:49;;;;;;;12.68;7.78;;;;;;;6.74;100.00;101563.28;5265968;28;20086;-78
2022/11/05 05:53:20;;;;;;;9.93;7.05;;;;;;;6.79;100.00;101576.88;5275654;28;20115;-78
2022/11/05 05:55:53;;;;;;;13.45;8.32;;;;;;;6.82;100.00;101578.47;5277198;28;20021;-78
2022/11/05 05:58:25;;;;;;;13.57;7.80;;;;;;;6.80;100.00;101572.50;5272358;28;20035;-78
2022/11/05 06:01:03;;;;;;;10.52;7.95;;;;;;;6.82;100.00;101575.88;5272571;28;20025;-78
2022/11/05 06:03:35;;;;;;;12.38;7.53;;;;;;;6.73;100.00;101572.00;5270128;28;20036;-78
2022/11/05 06:06:08;;;;;;;9.40;8.05;;;;;;;6.80;100.00;101578.53;5272467;28;20024;-78
2022/11/05 06:08:41;;;;;;;12.75;7.43;;;;;;;6.73;100.00;101573.78;5275323;28;20037;-78
2022/11/05 06:11:12;;;;;;;12.05;7.30;;;;;;;6.65;100.00;101579.41;5269737;28;20151;-78
2022/11/05 06:13:43;;;;;;;9.00;7.72;;;;;;;6.74;100.00;101585.84;5273491;28;20056;-78
2022/11/05 06:16:15;;;;;;;10.30;7.50;;;;;;;6.71;100.00;101579.06;5273243;28;20035;-78
2022/11/05 06:18:46;;;;;;;12.15;7.15;;;;;;;6.66;100.00;101569.84;5275632;28;20080;-78
2022/11/05 06:21:18;;;;;;;11.68;8.05;;;;;;;6.66;100.00;101583.69;5260274;28;20032;-77
2022/11/05 06:23:49;;;;;;;12.65;7.95;;;;;;;6.64;100.00;101595.97;5268351;28;20039;-78
2022/11/05 06:26:20;;;;;;;9.48;7.00;;;;;;;6.61;100.00;101582.28;5275411;28;20135;-77
2022/11/05 06:28:52;;;;;;;13.85;7.97;;;;;;;6.55;100.00;101583.44;5272637;28;20392;-78
2022/11/05 06:31:23;;;;;;;10.52;7.93;;;;;;;6.57;100.00;101587.66;5278737;28;20028;-78
2022/11/05 06:33:55;;;;;;;9.75;7.15;;;;;;;6.55;100.00;101579.09;5279057;28;20163;-78
2022/11/05 06:36:26;;;;;;;10.80;7.07;;;;;;;6.58;100.00;101591.94;5261097;28;20044;-78
2022/11/05 06:38:57;;;;;;;12.38;7.20;;;;;;;6.52;100.00;101575.84;5279353;28;20080;-78
2022/11/05 06:41:28;;;;;;;11.77;7.47;;;;;;;6.61;100.00;101592.69;5271944;28;20044;-78
2022/11/05 06:44:00;;;;;;;8.85;7.05;;;;;;;6.55;100.00;101592.13;5275808;28;20036;-78
2022/11/05 06:46:31;;;;;;;11.02;7.22;;;;;;;6.57;100.00;101592.03;5272250;28;20044;-78
2022/11/05 06:49:02;;;;;;;10.23;6.55;;;;;;;6.58;100.00;101593.69;5274824;28;20016;-78
2022/11/05 06:51:33;;;;;;;13.85;7.68;;;;;;;6.53;100.00;101582.72;5266207;28;20040;-78
2022/11/05 06:54:05;;;;;;;9.32;6.63;;;;;;;6.56;100.00;101596.41;5280156;28;20397;-78
2022/11/05 06:56:36;;;;;;;8.80;6.85;;;;;;;6.57;100.00;101590.25;5277933;28;20029;-78
2022/11/05 06:59:07;;;;;;;11.05;6.97;;;;;;;6.58;100.00;101596.31;5278519;28;20143;-78
2022/11/05 07:01:38;;;;;;;10.15;7.20;;;;;;;6.56;100.00;101601.59;5267111;28;20063;-78
2022/11/05 07:04:13;;;;;;;10.40;7.60;;;;;;;6.61;100.00;101600.50;5263318;28;20020;-78
2022/11/05 07:06:44;;;;;;;9.57;7.05;;;;;;;6.54;100.00;101611.25;5271288;28;20106;-78
2022/11/05 07:09:15;;;;;;;10.80;7.55;;;;;;;6.55;100.00;101614.69;5273793;28;20025;-77
2022/11/05 07:11:46;;;;;;;12.43;6.50;;;;;;;6.61;100.00;101618.72;5273212;28;20035;-77
2022/11/05 07:14:18;;;;;;;11.15;7.18;;;;;;;6.62;100.00;101625.63;5269575;28;20020;-77
2022/11/05 07:16:49;;;;;;;9.25;7.05;;;;;;;6.61;100.00;101622.16;5271721;28;20028;-78
2022/11/05 07:19:20;;;;;;;11.38;7.00;;;;;;;6.58;100.00;101619.72;5278936;28;20027;-78
2022/11/05 07:21:52;;;;;;;10.68;7.53;;;;;;;6.61;100.00;101621.34;5276705;28;20023;-78
2022/11/05 07:24:23;;;;;;;10.95;7.63;;;;;;;6.58;100.00;101625.78;5268885;28;20025;-78
2022/11/05 07:26:54;;;;;;;14.18;7.70;;;;;;;6.60;100.00;101625.72;5274458;28;20048;-77
2022/11/05 07:29:26;;;;;;;10.13;7.32;;;;;;;6.56;100.00;101625.03;5260875;28;20036;-77
2022/11/05 07:31:57;;;;;;;10.70;7.53;;;;;;;6.64;100.00;101632.41;5269786;28;20690;-78
2022/11/05 07:34:28;;;;;;;10.88;7.25;;;;;;;6.63;100.00;101635.09;5268824;28;20323;-77
2022/11/05 07:36:59;;;;;;;8.57;6.55;;;;;;;6.61;100.00;101629.16;5270728;28;20068;-78
2022/11/05 07:39:31;;;;;;;10.18;6.90;;;;;;;6.65;100.00;101633.25;5264300;28;20043;-78
2022/11/05 07:42:02;;;;;;;11.40;7.55;;;;;;;6.68;100.00;101643.50;5268498;28;20024;-78
2022/11/05 07:44:33;;;;;;;11.57;7.63;;;;;;;6.70;100.00;101644.25;5271273;28;20017;-77
2022/11/05 07:47:05;;;;;;;12.00;7.78;;;;;;;6.70;100.00;101639.88;5269973;28;20032;-78
2022/11/05 07:49:36;;;;;;;13.27;8.13;;;;;;;6.74;100.00;101644.00;5273411;28;20037;-78
2022/11/05 07:52:07;;;;;;;11.15;7.60;;;;;;;6.78;100.00;101642.03;5269167;28;20020;-78
2022/11/05 07:54:38;;;;;;;12.35;8.45;;;;;;;6.78;100.00;101642.91;5278376;28;20096;-78
2022/11/05 07:57:11;;;;;;;14.55;8.43;;;;;;;6.85;100.00;101637.34;5264347;28;20136;-78
2022/11/05 07:59:42;;;;;;;10.00;7.75;;;;;;;6.89;100.00;101650.09;5267648;28;20072;-78
2022/11/05 08:02:13;;;;;;;13.63;8.93;;;;;;;6.95;100.00;101644.56;5268059;28;20504;-78
2022/11/05 08:04:45;;;;;;;10.32;8.52;;;;;;;6.99;100.00;101640.84;5258431;28;20619;-78
2022/11/05 08:07:16;;;;;;;11.45;8.68;;;;;;;7.06;100.00;101639.56;5266849;28;20587;-78
2022/11/05 08:09:47;;;;;;;10.82;8.38;;;;;;;7.07;100.00;101641.25;5277750;28;20070;-78
2022/11/05 08:12:18;;;;;;;12.52;8.75;;;;;;;7.14;100.00;101656.53;5269395;28;20039;-78
2022/11/05 08:14:50;;;;;;;16.25;9.15;;;;;;;7.18;100.00;101645.00;5263884;28;20036;-78
2022/11/05 08:17:22;;;;;;;12.30;9.27;;;;;;;7.20;100.00;101645.78;5271460;28;20075;-78
2022/11/05 08:19:53;;;;;;;14.63;10.00;;;;;;;7.23;100.00;101640.34;5262731;28;20052;-78
2022/11/05 08:22:24;;;;;;;13.80;10.00;;;;;;;7.28;100.00;101647.00;5266275;28;20029;-77
2022/11/05 08:24:56;;;;;;;15.95;9.15;;;;;;;7.35;100.00;101639.66;5257223;28;20438;-78
2022/11/05 08:27:27;;;;;;;13.95;9.30;;;;;;;7.34;100.00;101637.97;5268417;28;20024;-78
2022/11/05 08:29:58;;;;;;;12.90;10.02;;;;;;;7.39;100.00;101638.56;5274531;28;20440;-78
2022/11/05 08:32:29;;;;;;;14.38;9.68;;;;;;;7.45;100.00;101635.56;5270240;28;20166;-78
2022/11/05 08:35:01;;;;;;;14.93;9.27;;;;;;;7.52;100.00;101647.31;5269005;28;20032;-78
2022/11/05 08:37:32;;;;;;;15.90;10.30;;;;;;;7.57;100.00;101639.22;5266064;28;20067;-78
2022/11/05 08:40:04;;;;;;;12.45;9.65;;;;;;;7.63;100.00;101638.03;5268683;28;20028;-78
2022/11/05 08:42:35;;;;;;;15.43;10.15;;;;;;;7.75;100.00;101642.50;5258350;28;20025;-78
2022/11/05 08:45:07;;;;;;;13.38;10.07;;;;;;;7.84;100.00;101641.09;5257936;28;20025;-78
2022/11/05 08:47:38;;;;;;;14.27;9.98;;;;;;;7.87;100.00;101640.91;5268068;28;20024;-78
2022/11/05 08:50:09;;;;;;;13.55;10.32;;;;;;;7.94;100.00;101652.66;5262810;28;20033;-78
2022/11/05 08:52:41;;;;;;;15.65;10.65;;;;;;;7.96;100.00;101648.19;5263372;28;20025;-78
2022/11/05 08:55:12;;;;;;;12.82;10.27;;;;;;;8.03;100.00;101657.31;5270703;23;20080;-71
2022/11/05 08:57:47;;;;;;;15.55;9.55;;;;;;;8.07;100.00;101647.53;5250853;28;20028;-72
2022/11/05 09:00:18;;;;;;;14.00;9.93;;;;;;;8.16;100.00;101645.19;5254425;28;20455;-71
2022/11/05 09:02:49;;;;;;;12.30;8.85;;;;;;;8.21;100.00;101650.13;5253496;28;20033;-71
2022/11/05 09:05:21;;;;;;;17.05;10.18;;;;;;;8.26;100.00;101650.69;5249302;28;20466;-71
2022/11/05 09:07:52;;;;;;;16.55;10.30;;;;;;;8.32;100.00;101645.09;5253362;28;20032;-71
2022/11/05 09:10:23;;;;;;;14.98;9.85;;;;;;;8.41;100.00;101654.13;5253322;28;20023;-71
2022/11/05 09:12:55;;;;;;;13.90;9.25;;;;;;;8.46;100.00;101655.53;5245201;28;20517;-71
2022/11/05 09:15:27;;;;;;;11.95;9.27;;;;;;;8.55;100.00;101656.72;5247365;28;20025;-71
2022/11/05 09:17:58;;;;;;;13.30;9.32;;;;;;;8.62;100.00;101649.34;5250010;28;20021;-71
2022/11/05 09:20:31;;;;;;;13.32;8.90;;;;;;;8.72;100.00;101651.28;5250405;28;20135;-71
2022/11/05 09:23:02;;;;;;;15.23;9.70;;;;;;;8.85;100.00;101647.88;5251078;28;20135;-71
2022/11/05 09:25:34;;;;;;;13.40;8.70;;;;;;;8.88;100.00;101648.50;5251351;28;20294;-72
2022/11/05 09:28:14;;;;;;;11.80;8.75;;;;;;;9.07;100.00;101648.16;5253877;28;20417;-71
2022/11/05 09:30:48;;;;;;;12.05;8.60;;;;;;;9.04;100.00;101650.13;5255260;28;20158;-71
2022/11/05 09:33:22;;;;;;;14.48;8.90;;;;;;;9.11;100.00;101652.22;5255046;28;20041;-71
2022/11/05 09:35:54;;;;;;;11.98;8.68;;;;;;;9.19;100.00;101649.13;5256941;28;20048;-71
2022/11/05 09:38:25;;;;;;;12.43;8.07;;;;;;;9.26;100.00;101653.00;5256373;28;20849;-71
2022/11/05 09:41:27;;;;;;;14.30;9.02;;;;;;;9.55;100.00;101655.47;5257155;28;20406;-72
2022/11/05 09:44:04;;;;;;;15.27;8.70;;;;;;;9.55;100.00;101655.47;5256357;28;20013;-72
2022/11/05 09:46:50;;;;;;;13.23;7.90;;;;;;;9.77;100.00;101653.03;5257902;28;21270;-72
2022/11/05 09:49:26;;;;;;;12.80;7.90;;;;;;;9.77;100.00;101652.19;5256270;28;20083;-72
2022/11/05 09:51:58;;;;;;;11.20;7.68;;;;;;;9.88;100.00;101660.97;5256299;28;20100;-72
2022/11/05 09:54:30;;;;;;;11.38;8.10;;;;;;;10.04;100.00;101662.53;5255307;28;20147;-72
2022/11/05 09:57:04;;;;;;;9.18;7.13;;;;;;;10.24;100.00;101664.63;5267125;28;20029;-71
2022/11/05 09:59:44;;;;;;;9.82;6.65;;;;;;;10.39;100.00;101662.75;5253476;28;20021;-72
2022/11/05 10:02:23;;;;;;;9.30;6.60;;;;;;;10.45;100.00;101671.00;5254268;28;20021;-72
2022/11/05 10:05:01;;;;;;;11.35;7.43;;;;;;;10.49;100.00;101671.59;5254890;28;20035;-71
2022/11/05 10:07:42;;;;;;;10.20;6.90;;;;;;;10.52;100.00;101665.31;5253843;28;20032;-71
2022/11/05 10:10:35;;;;;;;10.45;6.70;;;;;;;10.73;100.00;101682.13;5255607;28;20032;-73
2022/11/05 10:13:22;;;;;;;8.32;6.35;;;;;;;10.64;100.00;101680.16;5256622;28;20701;-72
2022/11/05 10:16:24;;;;;;;11.23;7.18;;;;;;;10.78;100.00;101692.28;5253914;28;20025;-71
2022/11/05 10:19:08;;;;;;;9.25;7.18;;;;;;;10.75;100.00;101690.69;5248766;28;20414;-72
2022/11/05 10:21:40;;;;;;;10.43;6.45;;;;;;;10.63;100.00;101697.66;5247443;28;20098;-72
2022/11/05 10:24:16;;;;;;;12.82;6.97;;;;;;;10.78;100.00;101702.75;5258096;28;20033;-72
2022/11/05 10:26:51;;;;;;;13.70;7.18;;;;;;;10.74;100.00;101696.91;5257835;28;20032;-72
2022/11/05 10:29:28;;;;;;;12.18;6.47;;;;;;;10.84;100.00;101702.31;5256958;28;20074;-72
2022/11/05 10:32:04;;;;;;;9.80;6.32;;;;;;;10.84;100.00;101712.81;5256062;28;20029;-72
2022/11/05 10:34:38;;;;;;;9.95;6.90;;;;;;;10.93;100.00;101706.88;5256348;28;20017;-72
2022/11/05 10:37:09;;;;;;;14.60;6.40;;;;;;;10.89;100.00;101711.50;5250634;28;20352;-72
2022/11/05 10:39:40;;;;;;;10.40;6.10;;;;;;;10.93;100.00;101714.75;5271145;28;20064;-73
2022/11/05 10:42:26;;;;;;;9.77;6.63;;;;;;;11.02;100.00;101711.44;5254461;28;20519;-72
2022/11/05 10:45:03;;;;;;;9.10;6.10;;;;;;;11.08;100.00;101703.16;5256501;28;20108;-72
2022/11/05 10:47:48;;;;;;;10.93;6.80;;;;;;;11.03;100.00;101688.72;5256923;28;20446;-72
2022/11/05 10:50:28;;;;;;;11.93;6.75;;;;;;;11.11;100.00;101697.69;5255159;28;20025;-72
2022/11/05 10:53:11;;;;;;;15.48;6.95;;;;;;;11.20;100.00;101693.53;5252115;28;20029;-72
2022/11/05 10:55:46;;;;;;;9.48;6.18;;;;;;;11.18;100.00;101696.28;5246328;28;20044;-72
2022/11/05 10:58:21;;;;;;;10.20;6.47;;;;;;;11.11;100.00;101684.56;5251899;28;20073;-73
2022/11/05 11:00:52;;;;;;;11.90;7.10;;;;;;;11.16;100.00;101694.72;5254132;28;20032;-73
2022/11/05 11:03:46;;;;;;;11.07;6.50;;;;;;;11.47;100.00;101692.44;5254808;28;20533;-73
2022/11/05 11:06:33;;;;;;;10.15;7.45;;;;;;;11.43;100.00;101694.44;5251652;28;20287;-72
2022/11/05 11:09:16;;;;;;;15.73;7.07;;;;;;;11.30;100.00;101699.78;5254998;28;20905;-72
2022/11/05 11:12:05;;;;;;;10.55;7.22;;;;;;;11.49;100.00;101688.75;5256034;28;20041;-72
2022/11/05 11:14:36;;;;;;;11.32;6.38;;;;;;;11.43;100.00;101700.53;5255664;28;20032;-72
2022/11/05 11:17:25;;;;;;;14.13;6.80;;;;;;;11.70;100.00;101696.78;5255364;28;20025;-72
2022/11/05 11:20:15;;;;;;;14.98;7.75;;;;;;;11.79;100.00;101688.22;5254281;28;20410;-72
2022/11/05 11:23:01;;;;;;;11.98;6.82;;;;;;;11.91;100.00;101692.56;5253796;28;20057;-72
2022/11/05 11:25:57;;;;;;;8.35;5.70;;;;;;;11.94;100.00;101683.63;5254835;28;20063;-72
2022/11/05 11:28:37;;;;;;;8.98;5.75;;;;;;;11.95;100.00;101674.78;5257046;28;20393;-73
2022/11/05 11:31:15;;;;;;;14.13;6.72;;;;;;;12.13;100.00;101668.09;5254070;28;20573;-73
2022/11/05 11:33:54;;;;;;;9.25;6.53;;;;;;;12.30;100.00;101673.81;5254132;28;20032;-72
2022/11/05 11:36:32;;;;;;;12.77;6.70;;;;;;;12.22;100.00;101673.59;5255069;28;20147;-73
2022/11/05 11:39:05;;;;;;;12.35;5.90;;;;;;;12.36;100.00;101681.22;5256563;28;20035;-72
2022/11/05 11:41:41;;;;;;;10.93;5.57;;;;;;;12.47;100.00;101669.88;5255546;28;20041;-73
2022/11/05 11:44:18;;;;;;;8.55;5.70;;;;;;;12.55;100.00;101681.44;5256053;28;20432;-72
2022/11/05 11:46:52;;;;;;;10.20;5.15;;;;;;;12.68;100.00;101683.91;5252644;28;20025;-73
2022/11/05 11:49:52;;;;;;;8.32;5.38;;;;;;;12.84;100.00;101680.84;5253709;28;20466;-72
2022/11/05 11:52:31;;;;;;;10.07;5.70;;;;;;;12.74;100.00;101679.97;5253129;28;20032;-74
2022/11/05 11:55:10;;;;;;;10.15;5.45;;;;;;;12.77;100.00;101683.16;5253625;28;20025;-72
2022/11/05 11:57:50;;;;;;;8.77;4.95;;;;;;;12.83;100.00;101682.66;5256101;28;20382;-72
2022/11/05 12:00:24;;;;;;;7.25;4.30;;;;;;;12.82;100.00;101674.91;5252723;28;20025;-72
2022/11/05 12:03:07;;;;;;;9.00;4.80;;;;;;;12.90;100.00;101664.59;5255490;28;20036;-72
2022/11/05 12:05:52;;;;;;;8.73;4.50;;;;;;;12.94;100.00;101665.19;5245498;28;20029;-72
2022/11/05 12:08:42;;;;;;;7.20;4.45;;;;;;;13.13;100.00;101660.91;5255798;28;20543;-72
2022/11/05 12:11:22;;;;;;;11.25;4.78;;;;;;;13.06;100.00;101662.38;5253463;28;20024;-72
2022/11/05 12:14:21;;;;;;;8.00;4.18;;;;;;;13.17;100.00;101666.75;5255183;28;20042;-72
2022/11/05 12:17:23;;;;;;;8.57;4.25;;;;;;;13.26;100.00;101670.44;5252700;28;20478;-72
2022/11/05 12:20:03;;;;;;;8.48;4.97;;;;;;;13.02;100.00;101663.59;5254639;28;20025;-72
2022/11/05 12:22:58;;;;;;;14.85;5.00;;;;;;;13.13;100.00;101665.34;5253624;28;20394;-72
2022/11/05 12:25:51;;;;;;;7.15;4.45;;;;;;;12.86;100.00;101666.63;5255558;28;20474;-72
2022/11/05 12:28:53;;;;;;;10.35;4.05;;;;;;;12.98;100.00;101663.97;5253995;28;20033;-72
2022/11/05 12:31:34;;;;;;;14.88;4.45;;;;;;;12.87;100.00;101657.78;5247490;28;20037;-72
2022/11/05 12:34:23;;;;;;;9.55;4.13;;;;;;;12.91;100.00;101646.03;5248165;28;20032;-72
2022/11/05 12:37:20;;;;;;;8.23;3.83;;;;;;;12.94;100.00;101641.50;5253006;28;20039;-72
2022/11/05 12:40:12;;;;;;;8.07;3.60;;;;;;;12.76;100.00;101643.84;5253224;28;20056;-72
2022/11/05 12:42:55;;;;;;;8.93;3.78;;;;;;;12.68;100.00;101636.56;5245656;28;20478;-74
2022/11/05 12:45:32;;;;;;;7.50;3.80;;;;;;;12.82;100.00;101635.47;5253679;28;20558;-72
2022/11/05 12:48:28;;;;;;;8.52;3.60;;;;;;;12.84;100.00;101637.00;5254908;28;20133;-72
2022/11/05 12:51:04;;;;;;;6.45;3.47;;;;;;;12.84;100.00;101623.88;5248798;28;20036;-72